createdAt,value
2022-11-16T00:02:50.990Z,99347.25
2022-11-16T00:16:06.368Z,99321.16
2022-11-16T00:18:33.596Z,99314.59
2022-11-16T00:23:38.001Z,99302.63
2022-11-16T00:26:09.810Z,99314.16
2022-11-16T00:28:36.601Z,99311.41
2022-11-16T00:31:05.992Z,99309.97
2022-11-16T00:33:32.603Z,99306.72
2022-11-16T00:36:30.186Z,99305.97
2022-11-16T00:39:24.793Z,99300.69
2022-11-16T00:42:13.188Z,99290.56
2022-11-16T00:44:39.730Z,99290.56
2022-11-16T00:47:06.251Z,99295.59
2022-11-16T00:49:32.843Z,99291.38
2022-11-16T00:51:59.365Z,99288.09
2022-11-16T00:54:25.912Z,99274.91
2022-11-16T00:57:07.529Z,99270.31
2022-11-16T00:59:34.087Z,99267.22
2022-11-16T01:02:00.635Z,99265.41
2022-11-16T01:04:27.307Z,99267.50
2022-11-16T01:07:25.138Z,99255.00
2022-11-16T01:10:12.553Z,99258.09
2022-11-16T01:12:39.658Z,99261.94
2022-11-16T01:15:09.118Z,99262.25
2022-11-16T01:17:37.726Z,99257.44
2022-11-16T01:20:06.661Z,99247.72
2022-11-16T01:22:36.251Z,99244.13
2022-11-16T01:25:21.943Z,99237.31
2022-11-16T01:27:48.533Z,99240.25
2022-11-16T01:30:16.560Z,99230.78
2022-11-16T01:32:43.224Z,99230.44
2022-11-16T01:39:19.679Z,99218.28
2022-11-16T01:41:46.784Z,99214.91
2022-11-16T01:44:31.644Z,99215.53
2022-11-16T01:47:06.709Z,99203.84
2022-11-16T01:49:37.419Z,99207.63
2022-11-16T01:52:10.353Z,99192.66
2022-11-16T02:20:15.662Z,99161.91
2022-11-16T02:23:12.245Z,99163.53
2022-11-16T02:26:26.122Z,99159.41
2022-11-16T02:32:03.314Z,99153.63
2022-11-16T02:34:37.552Z,99149.13
2022-11-16T02:37:07.837Z,99148.13
2022-11-16T02:39:37.331Z,99145.41
2022-11-16T02:42:08.352Z,99142.00
2022-11-16T02:45:20.401Z,99138.78
2022-11-16T02:50:52.868Z,99136.00
2022-11-16T02:53:24.425Z,99138.44
2022-11-16T02:55:51.364Z,99135.44
2022-11-16T02:58:21.404Z,99128.84
2022-11-16T03:01:25.215Z,99124.22
2022-11-16T03:04:28.268Z,99130.56
2022-11-16T03:06:58.284Z,99112.41
2022-11-16T03:09:29.085Z,99120.84
2022-11-16T03:12:00.849Z,99115.47
2022-11-16T03:14:37.935Z,99122.16
2022-11-16T03:17:08.265Z,99119.38
2022-11-16T03:19:44.078Z,99110.50
2022-11-16T03:22:42.410Z,99110.16
2022-11-16T03:25:46.629Z,99112.97
2022-11-16T03:29:14.098Z,99102.34
2022-11-16T03:31:52.124Z,99094.59
2022-11-16T03:34:21.865Z,99099.63
2022-11-16T03:36:51.117Z,99094.59
2022-11-16T03:39:25.632Z,99088.72
2022-11-16T03:41:53.318Z,99089.44
2022-11-16T03:49:57.915Z,99079.91
2022-11-16T03:52:24.692Z,99079.37
2022-11-16T03:54:51.210Z,99078.25
2022-11-16T03:57:18.626Z,99077.56
2022-11-16T04:00:09.194Z,99074.28
2022-11-16T04:03:03.799Z,99077.59
2022-11-16T04:05:57.987Z,99059.94
2022-11-16T04:08:43.312Z,99073.16
2022-11-16T04:11:38.000Z,99057.75
2022-11-16T04:14:23.938Z,99054.13
2022-11-16T04:17:09.295Z,99046.53
2022-11-16T04:19:58.187Z,99045.97
2022-11-16T04:22:51.721Z,99047.38
2022-11-16T04:25:27.913Z,99050.66
2022-11-16T04:28:13.248Z,99043.53
2022-11-16T04:31:08.691Z,99040.44
2022-11-16T04:33:54.247Z,99039.97
2022-11-16T04:40:13.966Z,99035.56
2022-11-16T04:42:40.537Z,99030.56
2022-11-16T04:45:26.210Z,99031.66
2022-11-16T04:47:53.702Z,99030.63
2022-11-16T04:50:20.729Z,99029.72
2022-11-16T05:50:17.903Z,98980.19
2022-11-16T05:52:44.527Z,98990.69
2022-11-16T05:55:11.072Z,98985.25
2022-11-16T05:57:37.614Z,98984.53
2022-11-16T06:00:04.987Z,98990.19
2022-11-16T06:02:34.966Z,98975.94
2022-11-16T06:05:02.126Z,98985.59
2022-11-16T06:07:28.980Z,98982.91
2022-11-16T06:09:55.527Z,98974.00
2022-11-16T06:12:22.065Z,98974.63
2022-11-16T06:14:48.595Z,98969.31
2022-11-16T06:17:15.162Z,98976.59
2022-11-16T06:19:42.027Z,98975.94
2022-11-16T06:22:08.577Z,98971.34
2022-11-16T06:24:35.116Z,98972.19
2022-11-16T06:37:28.803Z,98969.03
2022-11-16T06:39:55.381Z,98967.72
2022-11-16T06:42:22.071Z,98973.66
2022-11-16T06:44:48.581Z,98964.56
2022-11-16T06:47:15.251Z,98963.50
2022-11-16T06:49:41.891Z,98971.50
2022-11-16T06:54:49.854Z,98959.03
2022-11-16T06:57:16.437Z,98944.19
2022-11-16T06:59:42.989Z,98946.72
2022-11-16T07:02:13.004Z,98949.87
2022-11-16T07:04:39.969Z,98946.78
2022-11-16T07:07:06.567Z,98943.16
2022-11-16T07:09:33.271Z,98942.16
2022-11-16T07:11:59.803Z,98938.34
2022-11-16T07:14:26.332Z,98940.19
2022-11-16T07:16:59.058Z,98941.75
2022-11-16T07:19:26.557Z,98938.16
2022-11-16T07:21:53.132Z,98948.13
2022-11-16T07:24:19.664Z,98939.84
2022-11-16T07:26:46.204Z,98941.47
2022-11-16T07:29:13.978Z,98928.59
2022-11-16T07:31:40.751Z,98929.62
2022-11-16T07:34:07.567Z,98932.50
2022-11-16T07:36:34.137Z,98929.72
2022-11-16T07:39:00.800Z,98935.63
2022-11-16T07:41:27.356Z,98926.44
2022-11-16T07:43:53.968Z,98931.75
2022-11-16T07:46:47.414Z,98928.75
2022-11-16T07:49:17.975Z,98924.91
2022-11-16T07:51:45.751Z,98929.75
2022-11-16T07:54:15.785Z,98921.47
2022-11-16T07:56:42.639Z,98922.66
2022-11-16T07:59:09.792Z,98916.47
2022-11-16T08:01:36.368Z,98913.66
2022-11-16T08:04:03.234Z,98909.19
2022-11-16T08:06:31.654Z,98902.38
2022-11-16T08:08:59.367Z,98907.75
2022-11-16T08:11:26.471Z,98908.63
2022-11-16T08:13:56.102Z,98909.75
2022-11-16T08:16:23.149Z,98912.22
2022-11-16T08:18:49.811Z,98902.72
2022-11-16T08:21:17.746Z,98899.03
2022-11-16T08:23:45.240Z,98910.03
2022-11-16T08:26:17.426Z,98892.78
2022-11-16T08:28:45.756Z,98895.13
2022-11-16T08:31:18.043Z,98911.06
2022-11-16T08:41:57.858Z,98899.69
2022-11-16T08:44:27.472Z,98890.63
2022-11-16T08:46:54.039Z,98896.44
2022-11-16T08:49:20.577Z,98899.56
2022-11-16T08:51:47.127Z,98903.06
2022-11-16T08:56:54.867Z,98900.31
2022-11-16T08:59:21.395Z,98893.59
2022-11-16T09:01:50.025Z,98901.03
2022-11-16T09:04:19.824Z,98890.28
2022-11-16T09:06:46.397Z,98885.59
2022-11-16T09:09:28.138Z,98883.06
2022-11-16T09:12:25.500Z,98881.94
2022-11-16T09:15:06.025Z,98882.78
2022-11-16T09:17:32.682Z,98885.34
2022-11-16T09:19:59.231Z,98887.03
2022-11-16T09:22:26.091Z,98882.81
2022-11-16T09:24:52.658Z,98868.91
2022-11-16T09:27:19.392Z,98868.91
2022-11-16T09:29:45.941Z,98871.53
2022-11-16T09:32:12.494Z,98866.41
2022-11-16T09:34:39.051Z,98866.81
2022-11-16T09:37:05.642Z,98864.97
2022-11-16T09:39:32.981Z,98868.97
2022-11-16T09:42:08.375Z,98875.31
2022-11-16T09:50:56.475Z,98859.38
2022-11-16T09:53:38.641Z,98851.25
2022-11-16T09:56:07.779Z,98849.81
2022-11-16T09:58:52.266Z,98839.03
2022-11-16T10:01:41.363Z,98841.66
2022-11-16T10:04:39.882Z,98833.59
2022-11-16T10:07:09.239Z,98824.59
2022-11-16T10:09:36.312Z,98830.44
2022-11-16T10:12:06.692Z,98823.44
2022-11-16T10:18:51.940Z,98814.38
2022-11-16T10:21:47.413Z,98806.53
2022-11-16T10:24:24.004Z,98813.22
2022-11-16T10:27:08.898Z,98803.72
2022-11-16T10:29:51.331Z,98804.19
2022-11-16T10:32:56.349Z,98798.88
2022-11-16T10:35:27.083Z,98786.00
2022-11-16T10:37:54.908Z,98798.97
2022-11-16T10:40:26.159Z,98792.66
2022-11-16T10:43:42.671Z,98782.66
2022-11-16T10:47:07.319Z,98783.56
2022-11-16T10:49:44.303Z,98776.63
2022-11-16T10:52:10.844Z,98763.63
2022-11-16T10:54:42.877Z,98767.22
2022-11-16T10:57:14.117Z,98759.09
2022-11-16T10:59:59.180Z,98757.50
2022-11-16T11:07:39.804Z,98748.94
2022-11-16T11:10:23.643Z,98743.66
2022-11-16T11:13:02.412Z,98738.66
2022-11-16T11:15:28.982Z,98739.84
2022-11-16T11:18:48.658Z,98734.25
2022-11-16T11:21:49.351Z,98733.63
2022-11-16T11:24:43.520Z,98726.44
2022-11-16T11:27:07.283Z,98724.59
2022-11-16T11:29:38.608Z,98724.03
2022-11-16T11:32:19.315Z,98727.91
2022-11-16T11:34:53.038Z,98727.00
2022-11-16T11:46:15.558Z,98708.44
2022-11-16T11:49:02.343Z,98699.06
2022-11-16T11:51:37.107Z,98701.22
2022-11-16T11:57:26.939Z,98697.66
2022-11-16T11:59:54.921Z,98692.84
2022-11-16T12:03:02.924Z,98689.00
2022-11-16T12:05:50.308Z,98690.59
2022-11-16T12:11:50.639Z,98683.34
2022-11-16T12:14:40.640Z,98678.22
2022-11-16T12:17:29.129Z,98684.63
2022-11-16T12:20:16.693Z,98678.81
2022-11-16T12:23:46.582Z,98681.91
2022-11-16T12:26:29.807Z,98683.09
2022-11-16T12:28:56.181Z,98678.00
2022-11-16T12:31:41.737Z,98676.31
2022-11-16T12:34:20.284Z,98669.97
2022-11-16T12:37:09.910Z,98670.91
2022-11-16T12:47:50.695Z,98665.13
2022-11-16T12:50:32.584Z,98655.28
2022-11-16T12:57:01.820Z,98658.19
2022-11-16T12:59:42.507Z,98658.13
2022-11-16T13:02:36.112Z,98664.63
2022-11-16T13:05:15.622Z,98654.09
2022-11-16T13:07:48.567Z,98656.50
2022-11-16T13:10:17.723Z,98650.78
2022-11-16T13:12:47.694Z,98647.28
2022-11-16T13:15:20.668Z,98659.69
2022-11-16T13:17:51.583Z,98655.66
2022-11-16T13:20:32.380Z,98655.78
2022-11-16T13:23:12.076Z,98664.44
2022-11-16T13:26:03.799Z,98655.59
2022-11-16T13:29:04.474Z,98652.91
2022-11-16T13:31:39.527Z,98662.50
2022-11-16T13:34:14.380Z,98650.63
2022-11-16T13:36:45.388Z,98649.12
2022-11-16T13:39:21.564Z,98642.53
2022-11-16T13:42:07.387Z,98648.16
2022-11-16T13:44:34.741Z,98647.94
2022-11-16T13:47:05.843Z,98646.91
2022-11-16T13:49:40.920Z,98643.34
2022-11-16T13:52:40.976Z,98641.69
2022-11-16T13:55:13.810Z,98641.97
2022-11-16T13:57:51.973Z,98648.22
2022-11-16T14:00:31.379Z,98642.94
2022-11-16T14:03:16.583Z,98642.59
2022-11-16T14:05:45.174Z,98643.28
2022-11-16T14:08:24.045Z,98635.13
2022-11-16T14:10:50.499Z,98632.84
2022-11-16T14:13:38.289Z,98627.13
2022-11-16T14:16:19.839Z,98625.66
2022-11-16T14:18:54.490Z,98627.59
2022-11-16T14:21:36.056Z,98625.47
2022-11-16T14:24:48.213Z,98618.94
2022-11-16T14:27:31.071Z,98620.59
2022-11-16T14:30:18.752Z,98622.47
2022-11-16T14:32:52.371Z,98621.75
2022-11-16T14:35:39.313Z,98620.13
2022-11-16T14:38:30.340Z,98615.38
2022-11-16T14:40:59.850Z,98623.25
2022-11-16T14:43:34.355Z,98612.59
2022-11-16T14:46:07.758Z,98612.88
2022-11-16T14:48:41.777Z,98611.47
2022-11-16T14:51:14.545Z,98602.91
2022-11-16T14:53:46.686Z,98603.91
2022-11-16T14:56:15.483Z,98603.06
2022-11-16T14:59:00.131Z,98598.97
2022-11-16T15:01:39.359Z,98599.25
2022-11-16T15:04:12.658Z,98601.41
2022-11-16T15:06:49.900Z,98600.28
2022-11-16T15:09:33.103Z,98594.84
2022-11-16T15:12:23.383Z,98596.97
2022-11-16T15:14:52.795Z,98585.78
2022-11-16T15:17:22.561Z,98597.69
2022-11-16T15:19:57.557Z,98595.38
2022-11-16T15:22:29.879Z,98589.63
2022-11-16T15:25:01.568Z,98590.47
2022-11-16T15:30:20.530Z,98583.00
2022-11-16T15:32:49.095Z,98585.38
2022-11-16T15:35:18.811Z,98580.38
2022-11-16T15:37:45.470Z,98576.91
2022-11-16T15:40:13.006Z,98582.75
2022-11-16T15:43:14.889Z,98579.31
2022-11-16T15:45:52.346Z,98584.09
2022-11-16T15:48:23.219Z,98582.53
2022-11-16T15:51:07.993Z,98575.13
2022-11-16T15:53:39.487Z,98575.69
2022-11-16T15:56:10.072Z,98584.37
2022-11-16T15:58:40.235Z,98582.25
2022-11-16T16:03:53.887Z,98577.03
2022-11-16T16:06:53.017Z,98575.75
2022-11-16T16:09:31.546Z,98577.44
2022-11-16T16:15:44.879Z,98577.97
2022-11-16T16:18:39.751Z,98565.94
2022-11-16T16:31:41.019Z,98570.47
2022-11-16T16:34:11.500Z,98571.59
2022-11-16T16:36:38.052Z,98576.00
2022-11-16T16:39:04.595Z,98580.16
2022-11-16T16:41:31.130Z,98570.09
2022-11-16T16:43:57.690Z,98566.94
2022-11-16T16:46:24.227Z,98569.56
2022-11-16T16:48:50.917Z,98568.16
2022-11-16T16:51:38.926Z,98563.69
2022-11-16T16:54:05.771Z,98565.16
2022-11-16T16:56:32.302Z,98567.34
2022-11-16T16:58:58.831Z,98559.87
2022-11-16T17:01:26.613Z,98560.50
2022-11-16T17:03:53.520Z,98560.91
2022-11-16T17:17:01.046Z,98553.28
2022-11-16T17:19:28.693Z,98541.84
2022-11-16T17:22:11.736Z,98550.78
2022-11-16T17:24:38.768Z,98543.13
2022-11-16T17:27:05.368Z,98542.72
2022-11-16T17:29:35.163Z,98546.88
2022-11-16T17:32:02.406Z,98542.41
2022-11-16T17:34:29.130Z,98544.56
2022-11-16T17:36:56.001Z,98544.47
2022-11-16T17:39:24.816Z,98549.62
2022-11-16T17:41:51.553Z,98543.28
2022-11-16T17:44:21.867Z,98537.09
2022-11-16T17:46:50.004Z,98546.59
2022-11-16T17:49:16.516Z,98540.22
2022-11-16T17:51:43.238Z,98544.87
2022-11-16T17:54:09.853Z,98545.97
2022-11-16T17:56:36.640Z,98544.91
2022-11-16T17:59:03.458Z,98537.66
2022-11-16T18:01:30.262Z,98543.75
2022-11-16T18:03:57.213Z,98545.59
2022-11-16T18:06:25.246Z,98540.41
2022-11-16T18:08:52.305Z,98538.84
2022-11-16T18:11:23.840Z,98540.63
2022-11-16T18:13:57.110Z,98542.34
2022-11-16T18:16:26.519Z,98534.44
2022-11-16T18:19:04.931Z,98543.31
2022-11-16T18:21:33.838Z,98538.50
2022-11-16T18:24:00.659Z,98526.31
2022-11-16T18:26:27.204Z,98530.00
2022-11-16T18:28:54.142Z,98531.16
2022-11-16T18:31:23.296Z,98532.78
2022-11-16T18:34:08.496Z,98525.88
2022-11-16T18:36:35.061Z,98526.38
2022-11-16T18:39:01.635Z,98535.09
2022-11-16T18:41:29.665Z,98529.34
2022-11-16T18:43:58.949Z,98530.53
2022-11-16T18:46:27.638Z,98531.53
2022-11-16T18:48:54.997Z,98531.28
2022-11-16T18:51:22.577Z,98537.63
2022-11-16T18:53:52.167Z,98525.25
2022-11-16T18:56:19.431Z,98518.12
2022-11-16T19:04:17.004Z,98520.09
2022-11-16T19:06:43.570Z,98519.19
2022-11-16T19:09:10.455Z,98514.91
2022-11-16T19:11:37.136Z,98514.56
2022-11-16T19:14:04.763Z,98527.66
2022-11-16T19:16:31.769Z,98519.75
2022-11-16T19:18:58.380Z,98520.50
2022-11-16T19:34:41.046Z,98507.19
2022-11-16T19:37:07.661Z,98506.53
2022-11-16T19:39:34.238Z,98504.12
2022-11-16T19:42:00.846Z,98512.69
2022-11-16T19:44:27.393Z,98510.13
2022-11-16T19:46:54.488Z,98513.22
2022-11-16T19:49:21.835Z,98509.53
2022-11-16T19:51:49.149Z,98511.12
2022-11-16T19:54:15.703Z,98494.88
2022-11-16T19:56:43.047Z,98500.66
2022-11-16T19:59:10.134Z,98502.59
2022-11-16T20:01:36.726Z,98493.63
2022-11-16T20:04:04.270Z,98489.41
2022-11-16T20:06:36.319Z,98503.88
2022-11-16T20:20:11.132Z,98517.41
2022-11-16T20:25:13.174Z,98514.34
2022-11-16T20:27:39.712Z,98510.97
2022-11-16T20:30:09.681Z,98509.53
2022-11-16T20:32:36.523Z,98508.22
2022-11-16T20:35:34.110Z,98512.88
2022-11-16T20:38:41.455Z,98513.53
2022-11-16T20:41:13.098Z,98508.41
2022-11-16T20:43:40.784Z,98511.59
2022-11-16T20:46:12.581Z,98505.31
2022-11-16T20:48:40.659Z,98513.50
2022-11-16T20:51:08.792Z,98508.69
2022-11-16T20:53:35.608Z,98504.50
2022-11-16T20:56:03.709Z,98508.84
2022-11-16T20:58:31.516Z,98503.53
2022-11-16T21:01:02.722Z,98504.34
2022-11-16T21:03:29.637Z,98503.25
2022-11-16T21:05:59.080Z,98502.28
2022-11-16T21:08:26.441Z,98489.44
2022-11-16T21:10:53.796Z,98492.13
2022-11-16T21:13:39.325Z,98490.88
2022-11-16T21:16:08.540Z,98494.41
2022-11-16T21:18:35.096Z,98490.22
2022-11-16T21:21:04.024Z,98473.69
2022-11-16T21:26:31.085Z,98479.47
2022-11-16T21:28:58.861Z,98477.88
2022-11-16T21:31:29.670Z,98473.81
2022-11-16T21:33:56.842Z,98478.78
2022-11-16T21:36:25.628Z,98478.16
2022-11-16T21:43:17.436Z,98466.09
2022-11-16T21:45:45.817Z,98458.69
2022-11-16T21:48:13.131Z,98449.34
2022-11-16T21:55:50.183Z,98443.25
2022-11-16T22:01:00.359Z,98447.75
2022-11-16T22:03:31.840Z,98450.31
2022-11-16T22:06:19.663Z,98455.63
2022-11-16T22:08:47.256Z,98458.00
2022-11-16T22:11:15.416Z,98443.72
2022-11-16T22:14:31.924Z,98438.91
2022-11-16T22:17:55.140Z,98436.81
2022-11-16T22:20:21.900Z,98441.59
2022-11-16T22:22:48.880Z,98455.78
2022-11-16T22:25:15.869Z,98470.25
2022-11-16T22:28:05.938Z,98484.56
2022-11-16T22:30:29.091Z,98478.50
2022-11-16T22:35:46.889Z,98470.28
2022-11-16T22:38:13.438Z,98464.50
2022-11-16T22:40:39.977Z,98458.44
2022-11-16T22:43:06.746Z,98459.56
2022-11-16T22:49:20.720Z,98476.25
2022-11-16T22:51:47.255Z,98472.56
2022-11-16T22:54:15.610Z,98473.19
2022-11-16T22:56:43.127Z,98468.53
2022-11-16T22:59:10.035Z,98464.50
2022-11-16T23:01:37.479Z,98466.28
2022-11-16T23:04:04.630Z,98465.47
2022-11-16T23:06:31.403Z,98460.66
2022-11-16T23:08:58.070Z,98453.75
2022-11-16T23:11:55.443Z,98458.53
2022-11-16T23:14:40.468Z,98456.31
2022-11-16T23:17:07.020Z,98444.75
2022-11-16T23:19:53.014Z,98448.91
2022-11-16T23:22:40.272Z,98451.97
2022-11-16T23:25:29.177Z,98444.91
2022-11-16T23:28:01.052Z,98451.19
2022-11-16T23:30:27.617Z,98453.09
